Time;durP1;ratioP1;P1;durP2;ratioP2;P2;SDS_P1;SDS_P2;PMS_P1;PMS_P2;Temp;Humidity;BMP_temperature;BMP_pressure;BME280_temperature;BME280_humidity;BME280_pressure;Samples;Min_cycle;Max_cycle;Signal;HPM_P1;HPM_P2
2023/05/20 00:01:02;;;;;;;6.50;3.70;;;11.30;99.90;;;;;;5058736;28;20020;-69
2023/05/20 00:03:28;;;;;;;4.38;3.35;;;11.30;99.90;;;;;;5057860;28;20052;-70
2023/05/20 00:05:54;;;;;;;7.50;3.58;;;11.30;99.90;;;;;;5059308;28;20539;-70
2023/05/20 00:08:19;;;;;;;5.57;4.00;;;11.30;99.90;;;;;;5057723;28;22981;-69
2023/05/20 00:10:45;;;;;;;6.57;3.28;;;11.30;99.90;;;;;;5059001;28;20541;-71
2023/05/20 00:13:11;;;;;;;8.07;3.97;;;11.30;99.90;;;;;;5079001;28;20401;-71
2023/05/20 00:15:37;;;;;;;5.03;3.20;;;11.30;99.90;;;;;;5074987;28;20059;-70
2023/05/20 00:18:02;;;;;;;6.65;3.95;;;11.30;99.90;;;;;;5073157;28;20029;-71
2023/05/20 00:20:28;;;;;;;5.80;3.75;;;11.30;99.90;;;;;;5061988;28;20396;-71
2023/05/20 00:22:54;;;;;;;6.63;4.05;;;11.30;99.90;;;;;;5062489;28;20036;-70
2023/05/20 00:25:20;;;;;;;5.75;3.80;;;11.40;99.90;;;;;;5062588;28;20033;-71
2023/05/20 00:27:46;;;;;;;7.18;3.50;;;11.40;99.90;;;;;;5071851;28;20459;-70
2023/05/20 00:30:11;;;;;;;6.70;3.58;;;11.40;99.90;;;;;;5060566;28;20039;-70
2023/05/20 00:32:37;;;;;;;4.90;3.38;;;11.40;99.90;;;;;;5054392;28;20036;-70
2023/05/20 00:35:03;;;;;;;6.03;3.65;;;11.40;99.90;;;;;;5056929;28;20067;-70
2023/05/20 00:37:29;;;;;;;4.45;3.50;;;11.40;99.90;;;;;;5053686;28;20025;-70
2023/05/20 00:39:54;;;;;;;6.90;4.07;;;11.40;99.90;;;;;;5053018;28;20029;-70
2023/05/20 00:42:25;;;;;;;5.88;3.80;;;11.40;99.90;;;;;;5056388;28;20035;-70
2023/05/20 00:44:50;;;;;;;7.47;4.40;;;11.40;99.90;;;;;;5056335;28;20093;-70
2023/05/20 00:47:24;;;;;;;5.85;3.60;;;11.50;99.90;;;;;;5060904;28;20115;-70
2023/05/20 00:49:50;;;;;;;10.05;4.22;;;11.50;99.90;;;;;;5063583;28;20669;-70
2023/05/20 00:52:18;;;;;;;8.18;4.18;;;11.50;99.90;;;;;;5062058;28;20025;-71
2023/05/20 00:54:44;;;;;;;7.88;3.97;;;11.50;99.90;;;;;;5067627;28;20342;-70
2023/05/20 00:57:10;;;;;;;5.82;3.58;;;11.50;99.90;;;;;;5070823;28;20498;-71
2023/05/20 00:59:37;;;;;;;5.95;3.90;;;11.50;99.90;;;;;;5070112;28;20016;-72
2023/05/20 01:02:04;;;;;;;7.55;4.20;;;11.60;99.90;;;;;;5071762;28;20111;-70
2023/05/20 01:04:30;;;;;;;6.43;3.80;;;11.60;99.90;;;;;;5042651;28;20044;-71
2023/05/20 01:06:57;;;;;;;7.05;4.43;;;11.60;99.90;;;;;;5069540;28;20047;-71
2023/05/20 01:09:27;;;;;;;6.88;4.05;;;11.60;99.90;;;;;;5049355;28;20095;-72
2023/05/20 01:12:08;;;;;;;6.03;3.65;;;11.60;99.90;;;;;;5069761;28;20024;-71
2023/05/20 01:14:40;;;;;;;6.65;3.92;;;11.70;99.90;;;;;;5069635;28;20438;-71
2023/05/20 01:17:09;;;;;;;8.60;4.38;;;11.70;99.90;;;;;;5069565;28;20037;-72
2023/05/20 01:19:43;;;;;;;7.38;4.15;;;11.70;99.90;;;;;;5063898;28;20052;-71
2023/05/20 01:22:14;;;;;;;5.93;4.25;;;11.70;99.90;;;;;;5068755;28;20037;-71
2023/05/20 01:24:44;;;;;;;5.45;4.05;;;11.70;99.90;;;;;;5070997;28;20037;-71
2023/05/20 01:27:12;;;;;;;6.10;4.22;;;11.70;99.90;;;;;;5073776;28;20438;-71
2023/05/20 01:29:38;;;;;;;8.75;4.15;;;11.80;99.90;;;;;;5066082;28;20031;-71
2023/05/20 01:32:10;;;;;;;7.05;4.20;;;11.80;99.90;;;;;;5059283;28;20100;-70
2023/05/20 01:34:38;;;;;;;6.90;4.20;;;11.80;99.90;;;;;;5071686;28;20035;-70
2023/05/20 01:37:05;;;;;;;7.50;3.95;;;11.80;99.90;;;;;;5070641;28;20365;-71
2023/05/20 01:39:36;;;;;;;7.50;4.03;;;11.80;99.90;;;;;;5071315;28;20115;-71
2023/05/20 01:42:02;;;;;;;;;;;11.80;99.90;;;;;;5069000;28;20035;-71
2023/05/20 01:44:28;;;;;;;6.53;3.70;;;11.80;99.90;;;;;;5071127;28;19957;-71
2023/05/20 01:46:54;;;;;;;5.85;3.53;;;11.90;99.90;;;;;;5071506;28;20020;-71
2023/05/20 01:49:20;;;;;;;6.57;4.00;;;11.90;99.90;;;;;;5064271;28;20497;-71
2023/05/20 01:51:45;;;;;;;5.03;3.78;;;11.80;99.90;;;;;;5080290;28;20415;-71
2023/05/20 01:54:11;;;;;;;4.22;3.67;;;11.80;99.90;;;;;;5066187;28;20033;-71
2023/05/20 01:56:36;;;;;;;7.35;3.75;;;11.80;99.90;;;;;;5070068;28;20394;-71
2023/05/20 01:59:02;;;;;;;4.63;3.60;;;11.80;99.90;;;;;;5066129;28;20043;-71
2023/05/20 02:01:27;;;;;;;5.38;3.85;;;11.80;99.90;;;;;;5054874;28;20033;-71
2023/05/20 02:03:53;;;;;;;11.63;4.63;;;11.80;99.90;;;;;;5055245;28;20121;-71
2023/05/20 02:06:18;;;;;;;6.85;4.20;;;11.80;99.90;;;;;;5055763;28;20037;-71
2023/05/20 02:08:44;;;;;;;6.47;3.78;;;11.80;99.90;;;;;;5052305;28;20214;-71
2023/05/20 02:11:10;;;;;;;5.55;3.78;;;11.80;99.90;;;;;;5055427;28;20032;-71
2023/05/20 02:13:35;;;;;;;10.50;5.07;;;11.70;99.90;;;;;;5062754;28;20061;-71
2023/05/20 02:16:01;;;;;;;5.72;3.75;;;11.70;99.90;;;;;;5072170;28;20473;-71
2023/05/20 02:18:26;;;;;;;4.82;3.72;;;11.70;99.90;;;;;;5071711;28;20029;-72
2023/05/20 02:20:52;;;;;;;5.20;3.70;;;11.60;99.90;;;;;;5071636;28;20016;-72
2023/05/20 02:23:18;;;;;;;5.78;3.78;;;11.60;99.90;;;;;;5053065;28;20036;-72
2023/05/20 02:25:44;;;;;;;6.95;4.10;;;11.50;99.90;;;;;;5070789;28;20040;-70
2023/05/20 02:28:10;;;;;;;8.52;4.40;;;11.50;99.90;;;;;;5063001;28;20469;-71
2023/05/20 02:30:38;;;;;;;6.70;4.22;;;11.40;99.90;;;;;;5055276;28;20032;-70
2023/05/20 02:33:04;;;;;;;4.53;4.03;;;11.40;99.90;;;;;;5058015;28;20025;-71
2023/05/20 02:35:29;;;;;;;6.55;4.00;;;11.30;99.90;;;;;;5071030;28;20380;-70
2023/05/20 02:37:55;;;;;;;4.57;3.90;;;11.30;99.90;;;;;;5066523;28;20466;-71
2023/05/20 02:40:21;;;;;;;6.50;4.18;;;11.20;99.90;;;;;;5068407;28;20497;-71
2023/05/20 02:42:47;;;;;;;4.80;4.30;;;11.20;99.90;;;;;;5076129;28;20032;-71
2023/05/20 02:45:13;;;;;;;6.05;4.05;;;11.10;99.90;;;;;;5065456;28;20037;-71
2023/05/20 02:47:38;;;;;;;8.35;4.22;;;11.10;99.90;;;;;;5065613;28;20028;-71
2023/05/20 02:50:05;;;;;;;4.95;4.45;;;11.10;99.90;;;;;;5054409;28;20450;-71
2023/05/20 02:52:31;;;;;;;6.32;4.30;;;11.00;99.90;;;;;;5071450;28;20033;-71
2023/05/20 02:54:57;;;;;;;6.32;4.63;;;11.00;99.90;;;;;;5064596;28;20039;-72
2023/05/20 02:57:22;;;;;;;5.60;4.50;;;10.90;99.90;;;;;;5070079;28;20032;-71
2023/05/20 02:59:48;;;;;;;4.40;3.90;;;11.00;99.90;;;;;;5058813;28;20518;-71
2023/05/20 03:02:14;;;;;;;5.82;3.90;;;10.90;99.90;;;;;;5053120;28;20492;-71
2023/05/20 03:04:39;;;;;;;6.10;4.57;;;10.90;99.90;;;;;;5037435;28;20164;-71
2023/05/20 03:07:09;;;;;;;8.40;4.15;;;10.90;99.90;;;;;;5055731;28;20032;-71
2023/05/20 03:09:34;;;;;;;5.93;4.47;;;10.90;99.90;;;;;;5050599;28;20037;-70
2023/05/20 03:12:00;;;;;;;5.95;3.70;;;10.90;99.90;;;;;;5054686;28;20025;-71
2023/05/20 03:14:26;;;;;;;6.18;4.50;;;10.90;99.90;;;;;;5054794;28;20058;-71
2023/05/20 03:16:54;;;;;;;5.15;3.88;;;10.80;99.90;;;;;;5058720;28;20021;-71
2023/05/20 03:19:20;;;;;;;8.40;4.70;;;10.80;99.90;;;;;;5061180;28;20024;-71
2023/05/20 03:21:46;;;;;;;7.07;4.30;;;10.80;99.90;;;;;;5061521;28;20038;-71
2023/05/20 03:24:12;;;;;;;7.90;4.95;;;10.80;99.90;;;;;;5068151;28;20147;-71
2023/05/20 03:26:41;;;;;;;5.85;4.38;;;10.70;99.90;;;;;;5068529;28;20064;-70
2023/05/20 03:29:08;;;;;;;7.82;4.78;;;10.70;99.90;;;;;;5073243;28;20033;-71
2023/05/20 03:31:34;;;;;;;8.50;4.30;;;10.70;99.90;;;;;;5056738;28;20041;-71
2023/05/20 03:34:00;;;;;;;8.20;4.65;;;10.60;99.90;;;;;;5058706;28;20359;-71
2023/05/20 03:36:25;;;;;;;8.52;5.25;;;10.60;99.90;;;;;;5057839;28;20163;-72
2023/05/20 03:38:51;;;;;;;8.45;5.18;;;10.60;99.90;;;;;;5056534;28;20044;-71
2023/05/20 03:41:17;;;;;;;5.85;4.65;;;10.60;99.90;;;;;;5065641;28;20708;-71
2023/05/20 03:43:42;;;;;;;7.55;4.43;;;10.50;99.90;;;;;;5067761;28;20032;-72
2023/05/20 03:46:08;;;;;;;5.55;4.65;;;10.50;99.90;;;;;;5071758;28;20494;-71
2023/05/20 03:48:33;;;;;;;13.02;4.63;;;10.50;99.90;;;;;;5077753;28;20440;-70
2023/05/20 03:51:00;;;;;;;5.70;5.10;;;10.50;99.90;;;;;;5072478;28;20032;-71
2023/05/20 03:53:26;;;;;;;5.93;5.13;;;10.50;99.90;;;;;;5084594;28;20033;-71
2023/05/20 03:55:51;;;;;;;5.60;4.80;;;10.50;99.90;;;;;;5073926;28;20034;-71
2023/05/20 03:58:19;;;;;;;5.70;4.88;;;10.60;99.90;;;;;;5063584;28;20029;-70
2023/05/20 04:00:46;;;;;;;6.70;4.57;;;10.60;99.90;;;;;;5056430;28;20033;-71
2023/05/20 04:03:11;;;;;;;5.60;4.63;;;10.60;99.90;;;;;;5056894;28;20044;-72
2023/05/20 04:05:37;;;;;;;5.68;4.25;;;10.60;99.90;;;;;;5048877;28;20029;-71
2023/05/20 04:08:06;;;;;;;6.10;4.25;;;10.70;99.90;;;;;;5067954;28;20112;-70
2023/05/20 04:10:32;;;;;;;5.78;4.40;;;10.70;99.90;;;;;;5070606;28;20025;-71
2023/05/20 04:12:58;;;;;;;4.97;3.90;;;10.70;99.90;;;;;;5061094;28;20020;-70
2023/05/20 04:15:24;;;;;;;7.90;4.63;;;10.80;99.90;;;;;;5074124;28;20776;-71
2023/05/20 04:17:51;;;;;;;6.13;4.70;;;10.90;99.90;;;;;;5063864;28;20043;-71
2023/05/20 04:20:17;;;;;;;7.75;4.45;;;10.90;99.90;;;;;;5074052;28;20055;-71
2023/05/20 04:22:43;;;;;;;5.38;4.53;;;11.00;99.90;;;;;;5072482;28;20036;-71
2023/05/20 04:25:09;;;;;;;5.65;4.38;;;11.00;99.90;;;;;;5054473;28;20040;-71
2023/05/20 04:27:38;;;;;;;4.75;4.05;;;11.10;99.90;;;;;;5056885;28;20037;-71
2023/05/20 04:30:05;;;;;;;7.90;5.18;;;11.10;99.90;;;;;;5059620;28;20067;-71
2023/05/20 04:32:33;;;;;;;4.88;4.32;;;11.20;99.90;;;;;;5057327;28;20082;-70
2023/05/20 04:35:00;;;;;;;6.38;4.80;;;11.20;99.90;;;;;;5055110;28;20036;-71
2023/05/20 04:37:26;;;;;;;5.18;4.18;;;11.30;99.90;;;;;;5073980;28;20064;-72
2023/05/20 04:39:52;;;;;;;7.60;5.13;;;11.40;99.90;;;;;;5067131;28;20035;-71
2023/05/20 04:42:19;;;;;;;5.85;4.85;;;11.50;99.90;;;;;;5069557;28;20024;-71
2023/05/20 04:44:45;;;;;;;5.18;4.22;;;11.50;99.90;;;;;;5070913;28;20106;-71
2023/05/20 04:47:11;;;;;;;7.00;4.40;;;11.50;99.90;;;;;;5067127;28;20021;-71
2023/05/20 04:49:37;;;;;;;5.32;4.40;;;11.60;99.90;;;;;;5056469;28;20050;-71
2023/05/20 04:52:03;;;;;;;7.75;4.32;;;11.70;99.90;;;;;;5046733;28;20037;-71
2023/05/20 04:54:29;;;;;;;5.60;4.45;;;11.70;99.90;;;;;;5057496;28;20028;-71
2023/05/20 04:56:55;;;;;;;6.22;4.25;;;11.80;99.90;;;;;;5055212;28;20025;-71
2023/05/20 04:59:21;;;;;;;5.75;4.63;;;11.90;99.90;;;;;;5056190;28;20090;-70
2023/05/20 05:01:47;;;;;;;4.57;3.88;;;12.00;99.90;;;;;;5068008;28;20028;-72
2023/05/20 05:04:12;;;;;;;5.63;4.40;;;12.00;99.90;;;;;;5057981;28;20108;-72
2023/05/20 05:06:38;;;;;;;5.35;4.03;;;12.10;99.90;;;;;;5056806;28;20401;-73
2023/05/20 05:09:03;;;;;;;8.50;4.65;;;12.10;99.90;;;;;;5053893;28;20035;-71
2023/05/20 05:11:29;;;;;;;6.47;4.90;;;12.20;99.90;;;;;;5058499;28;20036;-71
2023/05/20 05:13:55;;;;;;;7.57;4.38;;;12.30;99.90;;;;;;5056048;28;20071;-71
2023/05/20 05:16:21;;;;;;;6.55;4.90;;;12.40;99.90;;;;;;5057035;28;20770;-71
2023/05/20 05:18:46;;;;;;;5.63;5.00;;;12.60;99.90;;;;;;5058744;28;20062;-70
2023/05/20 05:21:12;;;;;;;6.88;5.05;;;12.70;99.90;;;;;;5055361;28;20037;-72
2023/05/20 05:23:37;;;;;;;6.45;4.95;;;12.80;99.90;;;;;;5055606;28;20378;-71
2023/05/20 05:26:03;;;;;;;6.57;4.90;;;12.90;99.90;;;;;;5057474;28;20086;-71
2023/05/20 05:28:29;;;;;;;5.45;4.60;;;12.90;99.90;;;;;;5057293;28;20025;-72
2023/05/20 05:30:58;;;;;;;7.53;4.75;;;13.10;99.90;;;;;;5055899;28;20032;-71
2023/05/20 05:33:23;;;;;;;7.05;4.95;;;13.20;99.90;;;;;;5055852;28;20093;-71
2023/05/20 05:35:49;;;;;;;6.60;4.60;;;13.40;99.90;;;;;;5070192;28;20033;-70
2023/05/20 05:38:15;;;;;;;5.97;4.60;;;13.50;99.90;;;;;;5066589;28;20021;-71
2023/05/20 05:40:41;;;;;;;5.75;4.70;;;13.60;99.90;;;;;;5066966;28;20025;-70
2023/05/20 05:43:06;;;;;;;8.05;5.22;;;13.70;99.90;;;;;;5068652;28;20492;-70
2023/05/20 05:45:32;;;;;;;6.20;4.75;;;13.80;99.90;;;;;;5069933;28;20086;-70
2023/05/20 05:47:58;;;;;;;7.40;5.43;;;13.90;99.90;;;;;;5074278;28;20522;-71
2023/05/20 05:50:23;;;;;;;6.22;4.43;;;14.00;99.90;;;;;;5064175;28;20037;-71
2023/05/20 05:52:49;;;;;;;7.38;4.60;;;14.10;99.90;;;;;;5057802;28;20112;-70
2023/05/20 05:55:15;;;;;;;5.97;4.70;;;14.10;99.90;;;;;;5054935;28;20124;-72
2023/05/20 05:57:40;;;;;;;5.30;4.43;;;14.30;99.90;;;;;;5054563;28;20033;-72
2023/05/20 06:00:07;;;;;;;8.23;4.90;;;14.30;99.90;;;;;;5054313;28;20050;-72
2023/05/20 06:02:35;;;;;;;7.80;5.10;;;14.40;99.90;;;;;;5060329;28;20039;-71
2023/05/20 06:05:04;;;;;;;5.90;4.70;;;14.50;99.90;;;;;;5069039;28;20475;-71
2023/05/20 06:07:30;;;;;;;6.38;4.57;;;14.50;99.90;;;;;;5073034;28;20148;-71
2023/05/20 06:09:56;;;;;;;8.35;5.35;;;14.50;99.90;;;;;;5063425;28;20098;-71
2023/05/20 06:12:21;;;;;;;7.75;4.90;;;14.50;99.90;;;;;;5069432;28;20020;-71
2023/05/20 06:14:47;;;;;;;9.57;4.88;;;14.50;99.90;;;;;;5071814;28;20035;-72
2023/05/20 06:17:13;;;;;;;6.80;5.10;;;14.50;99.90;;;;;;5070811;28;20453;-71
2023/05/20 06:19:39;;;;;;;6.15;5.20;;;14.60;99.90;;;;;;5055046;28;20353;-74
2023/05/20 06:22:05;;;;;;;6.45;4.80;;;14.60;99.90;;;;;;5055366;28;20111;-70
2023/05/20 06:24:30;;;;;;;7.50;4.65;;;14.70;99.90;;;;;;5057130;28;20028;-70
2023/05/20 06:26:56;;;;;;;8.70;5.07;;;14.80;99.90;;;;;;5064858;28;20707;-71
2023/05/20 06:29:22;;;;;;;7.10;5.05;;;14.80;99.90;;;;;;5064758;28;20070;-72
2023/05/20 06:31:48;;;;;;;7.05;5.40;;;14.90;99.90;;;;;;5049510;28;20036;-72
2023/05/20 06:34:13;;;;;;;9.93;5.57;;;15.00;99.90;;;;;;5073691;28;20032;-72
2023/05/20 06:36:39;;;;;;;8.45;5.53;;;15.10;99.90;;;;;;5077573;28;20024;-72
2023/05/20 06:39:10;;;;;;;7.97;4.72;;;15.20;99.90;;;;;;5073107;28;20025;-73
2023/05/20 06:41:35;;;;;;;7.80;5.15;;;15.40;99.90;;;;;;5068966;28;20028;-71
2023/05/20 06:44:01;;;;;;;6.78;4.53;;;15.60;99.90;;;;;;5037712;28;20506;-76
2023/05/20 06:46:26;;;;;;;6.60;5.55;;;15.70;99.90;;;;;;5051804;28;20052;-76
2023/05/20 06:48:52;;;;;;;7.72;5.53;;;15.90;99.90;;;;;;5037339;28;20036;-71
2023/05/20 06:51:18;;;;;;;6.50;5.05;;;16.00;99.90;;;;;;5054802;28;20033;-71
2023/05/20 06:53:43;;;;;;;6.80;5.75;;;16.10;99.90;;;;;;5053214;28;20025;-70
2023/05/20 06:56:09;;;;;;;5.57;5.00;;;16.30;99.90;;;;;;5071261;28;20462;-71
2023/05/20 06:58:34;;;;;;;6.03;5.10;;;16.40;99.90;;;;;;5068613;28;20481;-70
2023/05/20 07:01:06;;;;;;;8.30;5.32;;;16.30;99.90;;;;;;5080370;28;20100;-72
2023/05/20 07:03:31;;;;;;;6.68;5.70;;;16.30;99.90;;;;;;5068196;28;20029;-79
2023/05/20 07:05:57;;;;;;;7.18;5.00;;;16.20;99.90;;;;;;5072128;28;20036;-73
2023/05/20 07:08:23;;;;;;;5.70;4.80;;;16.20;99.90;;;;;;5076810;28;20036;-72
2023/05/20 07:10:49;;;;;;;7.80;5.38;;;16.30;99.90;;;;;;5073043;28;20131;-71
2023/05/20 07:13:14;;;;;;;8.27;5.82;;;16.40;99.90;;;;;;5056226;28;20040;-73
2023/05/20 07:15:40;;;;;;;7.28;5.88;;;16.40;99.90;;;;;;5052909;28;20090;-72
2023/05/20 07:18:06;;;;;;;6.65;5.80;;;16.50;99.90;;;;;;5071385;28;20029;-75
2023/05/20 07:20:31;;;;;;;6.40;5.22;;;16.60;99.90;;;;;;5070576;28;20032;-75
2023/05/20 07:22:57;;;;;;;7.15;5.80;;;16.70;99.90;;;;;;5070605;28;20091;-74
2023/05/20 07:25:22;;;;;;;9.52;5.57;;;16.80;99.90;;;;;;5068390;28;20470;-71
2023/05/20 07:27:48;;;;;;;9.18;5.75;;;16.70;99.90;;;;;;5069787;28;20029;-74
2023/05/20 07:30:13;;;;;;;6.95;5.03;;;16.60;99.90;;;;;;5073373;28;20047;-75
2023/05/20 07:32:39;;;;;;;6.85;5.30;;;16.50;99.90;;;;;;5072390;28;20148;-73
2023/05/20 07:35:05;;;;;;;9.30;5.60;;;16.50;99.90;;;;;;5066124;28;20120;-71
2023/05/20 07:37:31;;;;;;;5.90;5.30;;;16.50;99.90;;;;;;5057333;28;20036;-70
2023/05/20 07:39:56;;;;;;;7.13;5.43;;;16.50;99.90;;;;;;5049717;28;20025;-70
2023/05/20 07:42:22;;;;;;;7.50;5.35;;;16.40;99.90;;;;;;5055553;28;20052;-72
2023/05/20 07:44:47;;;;;;;7.78;5.55;;;16.30;99.90;;;;;;5054682;28;20814;-73
2023/05/20 07:47:13;;;;;;;10.57;5.57;;;16.30;99.90;;;;;;5057141;28;20094;-71
2023/05/20 07:49:39;;;;;;;8.00;5.85;;;16.40;99.90;;;;;;5053742;28;20049;-71
2023/05/20 07:52:05;;;;;;;7.80;5.07;;;16.50;99.90;;;;;;5054018;28;20535;-70
2023/05/20 07:54:30;;;;;;;9.18;4.90;;;16.50;99.90;;;;;;5052230;28;20384;-70
2023/05/20 07:56:56;;;;;;;6.70;5.00;;;16.70;99.90;;;;;;5045304;28;20052;-70
2023/05/20 07:59:23;;;;;;;5.57;4.90;;;17.00;99.90;;;;;;5062349;28;20112;-71
2023/05/20 08:01:48;;;;;;;7.38;5.22;;;17.20;99.90;;;;;;5058574;28;20568;-71
2023/05/20 08:04:14;;;;;;;8.23;5.32;;;17.30;99.90;;;;;;5058734;28;20027;-71
2023/05/20 08:06:40;;;;;;;5.60;5.00;;;17.30;99.90;;;;;;5068296;28;20039;-70
2023/05/20 08:09:06;;;;;;;6.38;5.07;;;17.50;99.90;;;;;;5065623;28;20064;-71
2023/05/20 08:11:31;;;;;;;7.18;5.20;;;17.70;99.90;;;;;;5063426;28;20120;-71
2023/05/20 08:13:57;;;;;;;8.48;5.28;;;17.80;99.90;;;;;;5073506;28;20103;-70
2023/05/20 08:16:23;;;;;;;8.10;5.30;;;17.80;99.90;;;;;;5061624;28;20032;-70
2023/05/20 08:18:48;;;;;;;6.45;5.75;;;17.70;99.90;;;;;;5054267;28;20051;-71
2023/05/20 08:21:14;;;;;;;6.18;5.28;;;17.60;99.90;;;;;;5063012;28;20115;-69
2023/05/20 08:23:40;;;;;;;9.38;5.65;;;17.70;99.90;;;;;;5064026;28;20124;-75
2023/05/20 08:26:06;;;;;;;6.50;5.32;;;17.70;99.90;;;;;;5069499;28;20064;-71
2023/05/20 08:28:32;;;;;;;5.50;4.68;;;17.80;99.90;;;;;;5071315;28;20041;-71
2023/05/20 08:31:00;;;;;;;9.05;5.32;;;17.80;99.90;;;;;;5059663;28;20033;-75
2023/05/20 08:33:25;;;;;;;7.50;4.80;;;17.90;99.90;;;;;;5061424;28;20061;-72
2023/05/20 08:35:51;;;;;;;6.03;4.82;;;18.00;99.90;;;;;;5062896;28;20075;-69
2023/05/20 08:38:17;;;;;;;7.68;5.55;;;18.00;99.90;;;;;;5059097;28;20023;-73
2023/05/20 08:40:43;;;;;;;8.35;5.15;;;18.20;99.90;;;;;;5055695;28;20040;-72
2023/05/20 08:43:08;;;;;;;5.05;4.55;;;18.30;99.90;;;;;;5055260;28;20138;-71
2023/05/20 08:45:37;;;;;;;7.53;5.35;;;18.40;99.90;;;;;;5072846;28;20036;-70
2023/05/20 08:48:06;;;;;;;5.43;4.57;;;18.60;99.90;;;;;;5060523;28;20372;-72
2023/05/20 08:50:32;;;;;;;8.05;5.50;;;18.90;99.90;;;;;;5049373;28;20431;-73
2023/05/20 08:52:58;;;;;;;7.30;5.00;;;19.00;99.90;;;;;;5053950;28;20079;-72
2023/05/20 08:55:29;;;;;;;8.40;4.65;;;19.00;99.90;;;;;;5055325;28;20044;-72
2023/05/20 08:57:55;;;;;;;6.10;5.03;;;19.20;99.90;;;;;;5050560;28;20033;-71
2023/05/20 09:00:27;;;;;;;4.95;4.45;;;19.20;99.90;;;;;;5050110;28;20025;-71
2023/05/20 09:02:54;;;;;;;6.82;5.25;;;19.50;99.90;;;;;;5041248;28;20033;-73
2023/05/20 09:05:20;;;;;;;6.55;5.20;;;19.60;99.90;;;;;;5039395;28;20043;-70
2023/05/20 09:07:46;;;;;;;7.82;5.20;;;19.60;99.90;;;;;;5036437;28;20042;-71
2023/05/20 09:10:12;;;;;;;6.43;5.10;;;19.70;99.90;;;;;;5035042;28;20017;-70
2023/05/20 09:12:38;;;;;;;5.35;4.70;;;19.80;99.90;;;;;;5036351;28;20040;-72
2023/05/20 09:15:05;;;;;;;6.60;4.95;;;19.80;99.90;;;;;;5038806;28;20048;-69
2023/05/20 09:17:33;;;;;;;7.95;4.97;;;19.70;99.90;;;;;;5059917;28;20119;-68
2023/05/20 09:19:59;;;;;;;6.93;5.60;;;19.70;99.90;;;;;;5057644;28;20107;-70
2023/05/20 09:22:28;;;;;;;6.15;4.90;;;19.80;99.90;;;;;;5057502;28;20050;-73
2023/05/20 09:24:54;;;;;;;6.43;5.40;;;19.70;99.90;;;;;;5056891;28;20068;-73
2023/05/20 09:27:20;;;;;;;7.50;5.88;;;19.60;99.90;;;;;;5054893;28;20052;-74
2023/05/20 09:29:47;;;;;;;5.93;5.10;;;19.60;99.90;;;;;;5054579;28;20093;-73
2023/05/20 09:32:13;;;;;;;7.47;5.40;;;19.50;99.90;;;;;;5049508;28;20047;-73
2023/05/20 09:34:41;;;;;;;6.90;5.05;;;19.50;99.90;;;;;;5033837;28;20478;-73
2023/05/20 09:37:08;;;;;;;6.25;4.90;;;19.60;99.90;;;;;;5035426;28;20041;-72
2023/05/20 09:39:56;;;;;;;7.20;4.93;;;19.70;99.90;;;;;;5046912;28;20034;-72
2023/05/20 09:42:30;;;;;;;8.13;5.85;;;19.90;99.90;;;;;;5056397;28;20435;-73
2023/05/20 09:44:57;;;;;;;7.35;5.18;;;20.20;99.90;;;;;;5055532;28;20044;-72
2023/05/20 09:47:24;;;;;;;6.40;5.28;;;20.40;99.90;;;;;;5056384;28;20033;-73
2023/05/20 09:49:51;;;;;;;6.90;4.75;;;20.60;99.90;;;;;;5056925;28;20131;-80
2023/05/20 09:52:17;;;;;;;6.18;5.50;;;20.50;99.90;;;;;;5059432;28;20480;-69
2023/05/20 09:54:44;;;;;;;5.57;4.60;;;20.50;99.90;;;;;;5050693;28;20072;-73
2023/05/20 09:57:10;;;;;;;5.43;4.80;;;20.60;99.90;;;;;;5053821;28;20036;-70
2023/05/20 09:59:40;;;;;;;5.97;4.50;;;20.80;99.90;;;;;;5041859;28;20020;-69
2023/05/20 10:02:06;;;;;;;;;;;20.70;99.90;;;;;;5035104;28;20026;-71
2023/05/20 10:04:34;;;;;;;7.00;5.05;;;20.70;99.90;;;;;;5039186;28;19978;-69
2023/05/20 10:07:27;;;;;;;7.75;5.03;;;20.70;99.90;;;;;;5053921;28;20150;-71
2023/05/20 10:10:18;;;;;;;5.07;4.55;;;20.80;99.90;;;;;;5057087;28;20025;-71
2023/05/20 10:13:29;;;;;;;5.57;4.95;;;20.90;99.90;;;;;;5051233;28;20440;-71
2023/05/20 10:16:12;;;;;;;6.53;5.15;;;21.20;99.90;;;;;;4989906;28;20479;-71
2023/05/20 10:18:50;;;;;;;7.72;4.80;;;21.50;99.90;;;;;;4988689;28;20041;-75
2023/05/20 10:21:17;;;;;;;6.00;5.50;;;21.70;99.90;;;;;;5027643;28;20055;-75
2023/05/20 10:23:43;;;;;;;5.95;5.35;;;21.80;99.90;;;;;;5050745;28;20033;-69
2023/05/20 10:26:09;;;;;;;6.50;4.72;;;21.70;99.90;;;;;;5051885;28;20116;-69
2023/05/20 10:28:37;;;;;;;6.25;5.07;;;21.70;99.90;;;;;;5056320;28;21753;-71
2023/05/20 10:31:24;;;;;;;5.32;4.82;;;21.70;99.90;;;;;;5050078;28;20035;-69
2023/05/20 10:33:52;;;;;;;6.10;5.50;;;21.70;99.90;;;;;;5035874;28;20804;-73
2023/05/20 10:36:26;;;;;;;5.68;5.10;;;21.60;99.90;;;;;;5032054;28;20438;-70
2023/05/20 10:38:57;;;;;;;5.20;4.70;;;21.40;99.90;;;;;;5034416;28;20512;-71
2023/05/20 10:41:27;;;;;;;8.30;4.93;;;21.50;99.90;;;;;;5035293;28;20053;-70
2023/05/20 10:44:04;;;;;;;7.47;4.75;;;21.80;99.90;;;;;;5031502;28;20847;-72
2023/05/20 10:46:31;;;;;;;7.38;5.05;;;22.00;99.30;;;;;;5036958;28;20130;-70
2023/05/20 10:48:57;;;;;;;5.35;4.65;;;22.30;99.10;;;;;;5056478;28;20040;-70
2023/05/20 10:51:23;;;;;;;4.78;4.28;;;22.30;98.90;;;;;;5059074;28;20037;-70
2023/05/20 10:53:52;;;;;;;6.55;4.82;;;22.30;99.60;;;;;;5073642;28;20031;-71
2023/05/20 10:56:26;;;;;;;7.55;4.30;;;22.30;98.50;;;;;;5058331;28;20032;-71
2023/05/20 10:58:53;;;;;;;4.78;4.25;;;22.40;98.70;;;;;;5063612;28;20100;-71
2023/05/20 11:01:25;;;;;;;7.25;4.57;;;22.70;99.90;;;;;;5065695;28;20121;-71
2023/05/20 11:03:54;;;;;;;6.22;4.40;;;;;;;;;;5057629;28;20112;-72
2023/05/20 11:06:27;;;;;;;6.10;4.97;;;23.30;99.90;;;;;;5064966;28;20119;-71
2023/05/20 11:08:52;;;;;;;12.48;5.05;;;24.00;99.90;;;;;;5074810;28;20032;-73
2023/05/20 11:11:18;;;;;;;4.65;4.25;;;24.20;95.80;;;;;;5070079;28;20033;-72
2023/05/20 11:13:49;;;;;;;4.93;4.05;;;24.30;95.60;;;;;;5069519;28;20051;-71
2023/05/20 11:16:14;;;;;;;6.90;4.32;;;24.30;94.80;;;;;;5071128;28;20385;-71
2023/05/20 11:18:40;;;;;;;4.50;3.63;;;24.10;94.60;;;;;;5069977;28;20029;-71
2023/05/20 11:21:05;;;;;;;6.32;4.28;;;24.10;93.80;;;;;;5060440;28;20033;-75
2023/05/20 11:23:31;;;;;;;4.65;3.88;;;24.30;92.70;;;;;;5057747;28;20032;-70
2023/05/20 11:25:57;;;;;;;4.45;4.05;;;24.10;92.30;;;;;;5057468;28;20037;-72
2023/05/20 11:28:23;;;;;;;4.03;3.63;;;23.90;92.00;;;;;;5050538;28;20028;-73
2023/05/20 11:30:51;;;;;;;4.72;3.95;;;23.70;92.20;;;;;;5055854;28;20037;-72
2023/05/20 11:33:17;;;;;;;9.80;4.10;;;23.50;92.40;;;;;;5057462;28;20025;-73
2023/05/20 11:35:50;;;;;;;5.57;4.10;;;23.60;92.50;;;;;;5050122;28;20045;-72
2023/05/20 11:38:17;;;;;;;4.38;3.97;;;24.00;92.70;;;;;;5051866;28;20363;-72
2023/05/20 11:40:53;;;;;;;6.15;3.40;;;24.60;91.80;;;;;;5055517;28;20520;-72
2023/05/20 11:43:19;;;;;;;6.30;4.30;;;25.10;91.10;;;;;;5062821;28;20104;-70
2023/05/20 11:45:47;;;;;;;4.10;3.53;;;25.20;90.90;;;;;;5065514;28;20032;-70
2023/05/20 11:48:14;;;;;;;4.43;4.03;;;25.40;90.50;;;;;;5059184;28;20422;-70
2023/05/20 11:50:44;;;;;;;5.18;3.92;;;25.10;89.80;;;;;;5062683;28;20456;-70
2023/05/20 11:53:14;;;;;;;6.97;4.45;;;24.60;90.10;;;;;;5074844;28;20056;-70
2023/05/20 11:55:58;;;;;;;;;;;24.30;90.20;;;;;;5074583;28;20030;-70
2023/05/20 11:58:29;;;;;;;4.10;3.70;;;24.00;90.50;;;;;;5074319;28;19904;-69
2023/05/20 12:00:55;;;;;;;7.65;4.25;;;23.70;91.00;;;;;;5074413;28;20028;-71
2023/05/20 12:03:21;;;;;;;6.30;4.30;;;23.70;91.10;;;;;;5061558;28;20457;-70
2023/05/20 12:05:47;;;;;;;6.40;4.70;;;23.70;91.10;;;;;;5058004;28;20037;-69
2023/05/20 12:08:13;;;;;;;5.00;4.50;;;23.60;91.40;;;;;;5061861;28;20036;-71
2023/05/20 12:10:38;;;;;;;4.93;3.95;;;23.60;91.40;;;;;;5071328;28;20040;-69
2023/05/20 12:13:07;;;;;;;8.60;4.28;;;23.90;91.90;;;;;;5073501;28;20064;-69
2023/05/20 12:15:36;;;;;;;5.55;4.28;;;24.40;91.00;;;;;;5073993;28;20048;-69
2023/05/20 12:18:02;;;;;;;5.05;4.38;;;24.90;90.40;;;;;;5073594;28;20048;-70
2023/05/20 12:20:29;;;;;;;4.63;4.22;;;25.60;90.70;;;;;;5073592;28;20469;-69
2023/05/20 12:22:58;;;;;;;7.22;4.43;;;;;;;;;;5072747;28;20029;-70
2023/05/20 12:25:26;;;;;;;5.57;4.03;;;;;;;;;;5064560;28;20087;-69
2023/05/20 12:27:52;;;;;;;7.38;4.30;;;26.50;97.80;;;;;;5060173;28;20345;-70
2023/05/20 12:30:21;;;;;;;5.13;4.30;;;26.70;94.80;;;;;;5060592;28;20588;-69
2023/05/20 12:32:52;;;;;;;4.75;4.35;;;26.00;94.20;;;;;;5068247;28;20037;-69
2023/05/20 12:35:25;;;;;;;8.75;4.07;;;25.90;94.60;;;;;;5073040;28;20040;-69
2023/05/20 12:37:51;;;;;;;4.30;3.80;;;25.70;95.10;;;;;;5061000;28;20618;-70
2023/05/20 12:40:17;;;;;;;4.55;4.15;;;25.50;94.60;;;;;;5069266;28;20032;-70
2023/05/20 12:42:43;;;;;;;4.35;3.60;;;25.60;95.20;;;;;;5067542;28;20056;-69
2023/05/20 12:45:09;;;;;;;4.78;4.03;;;25.90;94.90;;;;;;5060514;28;20047;-68
2023/05/20 12:47:35;;;;;;;5.25;3.20;;;26.30;93.80;;;;;;5073712;28;20430;-67